sensor_id;sensor_type;location;lat;lon;timestamp;temperature;humidity
16976;DHT22;8604;48.148;-1.786;2022-11-20T00:00:21;6.10;99.90
16976;DHT22;8604;48.148;-1.786;2022-11-20T00:02:50;6.10;99.90
16976;DHT22;8604;48.148;-1.786;2022-11-20T00:05:19;6.10;99.90
16976;DHT22;8604;48.148;-1.786;2022-11-20T00:07:48;6.10;99.90
16976;DHT22;8604;48.148;-1.786;2022-11-20T00:10:18;6.10;99.90
16976;DHT22;8604;48.148;-1.786;2022-11-20T00:12:47;6.10;99.90
16976;DHT22;8604;48.148;-1.786;2022-11-20T00:15:16;6.20;99.90
16976;DHT22;8604;48.148;-1.786;2022-11-20T00:17:45;6.20;99.90
16976;DHT22;8604;48.148;-1.786;2022-11-20T00:20:14;6.20;99.90
16976;DHT22;8604;48.148;-1.786;2022-11-20T00:22:43;6.20;99.90
16976;DHT22;8604;48.148;-1.786;2022-11-20T00:25:12;6.30;99.90
16976;DHT22;8604;48.148;-1.786;2022-11-20T00:27:42;6.30;99.90
16976;DHT22;8604;48.148;-1.786;2022-11-20T00:30:11;6.30;99.90
16976;DHT22;8604;48.148;-1.786;2022-11-20T00:32:41;6.30;99.90
16976;DHT22;8604;48.148;-1.786;2022-11-20T00:35:10;6.40;99.90
16976;DHT22;8604;48.148;-1.786;2022-11-20T00:37:39;6.40;99.90
16976;DHT22;8604;48.148;-1.786;2022-11-20T00:42:41;6.40;99.90
16976;DHT22;8604;48.148;-1.786;2022-11-20T00:45:10;6.50;99.90
16976;DHT22;8604;48.148;-1.786;2022-11-20T00:47:39;6.50;99.90
16976;DHT22;8604;48.148;-1.786;2022-11-20T00:50:08;6.50;99.90
16976;DHT22;8604;48.148;-1.786;2022-11-20T00:52:36;6.60;99.90
16976;DHT22;8604;48.148;-1.786;2022-11-20T00:55:05;6.60;99.90
16976;DHT22;8604;48.148;-1.786;2022-11-20T00:57:34;6.60;99.90
16976;DHT22;8604;48.148;-1.786;2022-11-20T01:00:07;6.60;99.90
16976;DHT22;8604;48.148;-1.786;2022-11-20T01:02:38;6.70;99.90
16976;DHT22;8604;48.148;-1.786;2022-11-20T01:05:07;6.70;99.90
16976;DHT22;8604;48.148;-1.786;2022-11-20T01:07:35;6.70;99.90
16976;DHT22;8604;48.148;-1.786;2022-11-20T01:10:07;6.80;99.90
16976;DHT22;8604;48.148;-1.786;2022-11-20T01:12:38;6.80;99.90
16976;DHT22;8604;48.148;-1.786;2022-11-20T01:15:09;6.80;99.90
16976;DHT22;8604;48.148;-1.786;2022-11-20T01:17:37;6.80;99.90
16976;DHT22;8604;48.148;-1.786;2022-11-20T01:20:07;6.80;99.90
16976;DHT22;8604;48.148;-1.786;2022-11-20T01:22:36;6.80;99.90
16976;DHT22;8604;48.148;-1.786;2022-11-20T01:25:11;6.80;99.90
16976;DHT22;8604;48.148;-1.786;2022-11-20T01:27:40;6.80;99.90
16976;DHT22;8604;48.148;-1.786;2022-11-20T01:30:12;6.90;99.90
16976;DHT22;8604;48.148;-1.786;2022-11-20T01:32:41;6.90;99.90
16976;DHT22;8604;48.148;-1.786;2022-11-20T01:35:09;6.90;99.90
16976;DHT22;8604;48.148;-1.786;2022-11-20T01:37:40;6.90;99.90
16976;DHT22;8604;48.148;-1.786;2022-11-20T01:40:12;6.90;99.90
16976;DHT22;8604;48.148;-1.786;2022-11-20T01:42:46;6.90;99.90
16976;DHT22;8604;48.148;-1.786;2022-11-20T01:45:56;6.90;99.90
16976;DHT22;8604;48.148;-1.786;2022-11-20T01:48:30;7.00;99.90
16976;DHT22;8604;48.148;-1.786;2022-11-20T01:51:00;7.00;99.90
16976;DHT22;8604;48.148;-1.786;2022-11-20T01:53:34;7.00;99.90
16976;DHT22;8604;48.148;-1.786;2022-11-20T01:56:08;7.00;99.90
16976;DHT22;8604;48.148;-1.786;2022-11-20T01:58:41;7.00;99.90
16976;DHT22;8604;48.148;-1.786;2022-11-20T02:01:12;7.10;99.90
16976;DHT22;8604;48.148;-1.786;2022-11-20T02:03:42;7.10;99.90
16976;DHT22;8604;48.148;-1.786;2022-11-20T02:06:16;7.10;99.90
16976;DHT22;8604;48.148;-1.786;2022-11-20T02:08:45;7.10;99.90
16976;DHT22;8604;48.148;-1.786;2022-11-20T02:11:14;7.10;99.90
16976;DHT22;8604;48.148;-1.786;2022-11-20T02:13:42;7.10;99.90
16976;DHT22;8604;48.148;-1.786;2022-11-20T02:16:17;7.20;99.90
16976;DHT22;8604;48.148;-1.786;2022-11-20T02:18:47;7.20;99.90
16976;DHT22;8604;48.148;-1.786;2022-11-20T02:21:28;7.20;99.90
16976;DHT22;8604;48.148;-1.786;2022-11-20T02:24:05;7.20;99.90
16976;DHT22;8604;48.148;-1.786;2022-11-20T02:26:45;7.30;99.90
16976;DHT22;8604;48.148;-1.786;2022-11-20T02:29:17;7.30;99.90
16976;DHT22;8604;48.148;-1.786;2022-11-20T02:31:48;7.30;99.90
16976;DHT22;8604;48.148;-1.786;2022-11-20T02:34:16;7.30;99.90
16976;DHT22;8604;48.148;-1.786;2022-11-20T02:36:46;7.30;99.90
16976;DHT22;8604;48.148;-1.786;2022-11-20T02:39:17;7.40;99.90
16976;DHT22;8604;48.148;-1.786;2022-11-20T02:41:48;7.40;99.90
16976;DHT22;8604;48.148;-1.786;2022-11-20T02:44:16;7.50;99.90
16976;DHT22;8604;48.148;-1.786;2022-11-20T02:46:45;7.50;99.90
16976;DHT22;8604;48.148;-1.786;2022-11-20T02:49:14;7.50;99.90
16976;DHT22;8604;48.148;-1.786;2022-11-20T02:51:43;7.50;99.90
16976;DHT22;8604;48.148;-1.786;2022-11-20T02:54:11;7.60;99.90
16976;DHT22;8604;48.148;-1.786;2022-11-20T02:56:41;7.60;99.90
16976;DHT22;8604;48.148;-1.786;2022-11-20T02:59:10;7.60;99.90
16976;DHT22;8604;48.148;-1.786;2022-11-20T03:01:39;7.60;99.90
16976;DHT22;8604;48.148;-1.786;2022-11-20T03:04:07;7.60;99.90
16976;DHT22;8604;48.148;-1.786;2022-11-20T03:06:36;7.70;99.90
16976;DHT22;8604;48.148;-1.786;2022-11-20T03:09:05;7.70;99.90
16976;DHT22;8604;48.148;-1.786;2022-11-20T03:11:37;7.70;99.90
16976;DHT22;8604;48.148;-1.786;2022-11-20T03:14:07;7.70;99.90
16976;DHT22;8604;48.148;-1.786;2022-11-20T03:16:36;7.70;99.90
16976;DHT22;8604;48.148;-1.786;2022-11-20T03:19:07;7.70;99.90
16976;DHT22;8604;48.148;-1.786;2022-11-20T03:21:36;7.70;99.90
16976;DHT22;8604;48.148;-1.786;2022-11-20T03:24:05;7.70;99.90
16976;DHT22;8604;48.148;-1.786;2022-11-20T03:26:37;7.70;99.90
16976;DHT22;8604;48.148;-1.786;2022-11-20T03:29:08;7.70;99.90
16976;DHT22;8604;48.148;-1.786;2022-11-20T03:31:38;7.80;99.90
16976;DHT22;8604;48.148;-1.786;2022-11-20T03:34:09;7.80;99.90
16976;DHT22;8604;48.148;-1.786;2022-11-20T03:36:39;7.70;99.90
16976;DHT22;8604;48.148;-1.786;2022-11-20T03:39:08;7.70;99.90
16976;DHT22;8604;48.148;-1.786;2022-11-20T03:41:38;7.70;99.90
16976;DHT22;8604;48.148;-1.786;2022-11-20T03:44:11;7.80;99.90
16976;DHT22;8604;48.148;-1.786;2022-11-20T03:46:40;7.80;99.90
16976;DHT22;8604;48.148;-1.786;2022-11-20T03:49:09;7.80;99.90
16976;DHT22;8604;48.148;-1.786;2022-11-20T03:51:38;7.80;99.90
16976;DHT22;8604;48.148;-1.786;2022-11-20T03:54:08;7.80;99.90
16976;DHT22;8604;48.148;-1.786;2022-11-20T03:56:41;7.80;99.90
16976;DHT22;8604;48.148;-1.786;2022-11-20T03:59:11;7.90;99.90
16976;DHT22;8604;48.148;-1.786;2022-11-20T04:01:40;7.80;99.90
16976;DHT22;8604;48.148;-1.786;2022-11-20T04:04:15;7.90;99.90
16976;DHT22;8604;48.148;-1.786;2022-11-20T04:06:43;7.90;99.90
16976;DHT22;8604;48.148;-1.786;2022-11-20T04:09:13;7.90;99.90
16976;DHT22;8604;48.148;-1.786;2022-11-20T04:11:42;7.90;99.90
16976;DHT22;8604;48.148;-1.786;2022-11-20T04:14:14;8.00;99.90
16976;DHT22;8604;48.148;-1.786;2022-11-20T04:16:43;8.00;99.90
16976;DHT22;8604;48.148;-1.786;2022-11-20T04:19:13;8.00;99.90
16976;DHT22;8604;48.148;-1.786;2022-11-20T04:21:42;8.00;99.90
16976;DHT22;8604;48.148;-1.786;2022-11-20T04:24:11;8.00;99.90
16976;DHT22;8604;48.148;-1.786;2022-11-20T04:26:40;8.10;99.90
16976;DHT22;8604;48.148;-1.786;2022-11-20T04:29:10;8.10;99.90
16976;DHT22;8604;48.148;-1.786;2022-11-20T04:31:41;8.10;99.90
16976;DHT22;8604;48.148;-1.786;2022-11-20T04:34:11;8.10;99.90
16976;DHT22;8604;48.148;-1.786;2022-11-20T04:36:40;8.10;99.90
16976;DHT22;8604;48.148;-1.786;2022-11-20T04:39:12;8.20;99.90
16976;DHT22;8604;48.148;-1.786;2022-11-20T04:41:41;8.20;99.90
16976;DHT22;8604;48.148;-1.786;2022-11-20T04:44:10;8.20;99.90
16976;DHT22;8604;48.148;-1.786;2022-11-20T04:46:41;8.20;99.90
16976;DHT22;8604;48.148;-1.786;2022-11-20T04:49:10;8.20;99.90
16976;DHT22;8604;48.148;-1.786;2022-11-20T04:51:39;8.30;99.90
16976;DHT22;8604;48.148;-1.786;2022-11-20T04:54:09;8.30;99.90
16976;DHT22;8604;48.148;-1.786;2022-11-20T04:56:38;8.30;99.90
16976;DHT22;8604;48.148;-1.786;2022-11-20T04:59:07;8.30;99.90
16976;DHT22;8604;48.148;-1.786;2022-11-20T05:01:36;8.40;99.90
16976;DHT22;8604;48.148;-1.786;2022-11-20T05:04:06;8.40;99.90
16976;DHT22;8604;48.148;-1.786;2022-11-20T05:06:34;8.40;99.90
16976;DHT22;8604;48.148;-1.786;2022-11-20T05:09:04;8.40;99.90
16976;DHT22;8604;48.148;-1.786;2022-11-20T05:11:35;8.40;99.90
16976;DHT22;8604;48.148;-1.786;2022-11-20T05:14:04;8.50;99.90
16976;DHT22;8604;48.148;-1.786;2022-11-20T05:16:34;8.50;99.90
16976;DHT22;8604;48.148;-1.786;2022-11-20T05:19:03;8.50;99.90
16976;DHT22;8604;48.148;-1.786;2022-11-20T05:21:33;8.50;99.90
16976;DHT22;8604;48.148;-1.786;2022-11-20T05:24:02;8.60;99.90
16976;DHT22;8604;48.148;-1.786;2022-11-20T05:26:31;8.60;99.90
16976;DHT22;8604;48.148;-1.786;2022-11-20T05:29:00;8.60;99.90
16976;DHT22;8604;48.148;-1.786;2022-11-20T05:31:28;8.60;99.90
16976;DHT22;8604;48.148;-1.786;2022-11-20T05:33:57;8.60;99.90
16976;DHT22;8604;48.148;-1.786;2022-11-20T05:36:25;8.70;99.90
16976;DHT22;8604;48.148;-1.786;2022-11-20T05:38:55;8.70;99.90
16976;DHT22;8604;48.148;-1.786;2022-11-20T05:41:27;8.70;99.90
16976;DHT22;8604;48.148;-1.786;2022-11-20T05:43:58;8.70;99.90
16976;DHT22;8604;48.148;-1.786;2022-11-20T05:46:27;8.70;99.90
16976;DHT22;8604;48.148;-1.786;2022-11-20T05:48:56;8.80;99.90
16976;DHT22;8604;48.148;-1.786;2022-11-20T05:51:26;8.80;99.90
16976;DHT22;8604;48.148;-1.786;2022-11-20T05:53:57;8.80;99.90
16976;DHT22;8604;48.148;-1.786;2022-11-20T05:56:26;8.80;99.90
16976;DHT22;8604;48.148;-1.786;2022-11-20T05:58:56;8.80;99.90
16976;DHT22;8604;48.148;-1.786;2022-11-20T06:01:25;8.90;99.90
16976;DHT22;8604;48.148;-1.786;2022-11-20T06:03:54;8.90;99.90
16976;DHT22;8604;48.148;-1.786;2022-11-20T06:06:23;8.90;99.90
16976;DHT22;8604;48.148;-1.786;2022-11-20T06:08:52;8.90;99.90
16976;DHT22;8604;48.148;-1.786;2022-11-20T06:11:22;8.90;99.90
16976;DHT22;8604;48.148;-1.786;2022-11-20T06:13:51;9.00;99.90
16976;DHT22;8604;48.148;-1.786;2022-11-20T06:16:20;9.00;99.90
16976;DHT22;8604;48.148;-1.786;2022-11-20T06:18:49;9.00;99.90
16976;DHT22;8604;48.148;-1.786;2022-11-20T06:21:18;9.00;99.90
16976;DHT22;8604;48.148;-1.786;2022-11-20T06:23:48;9.10;99.90
16976;DHT22;8604;48.148;-1.786;2022-11-20T06:26:18;9.10;99.90
16976;DHT22;8604;48.148;-1.786;2022-11-20T06:28:49;9.10;99.90
16976;DHT22;8604;48.148;-1.786;2022-11-20T06:31:19;9.10;99.90
16976;DHT22;8604;48.148;-1.786;2022-11-20T06:33:49;9.10;99.90
16976;DHT22;8604;48.148;-1.786;2022-11-20T06:36:20;9.10;99.90
16976;DHT22;8604;48.148;-1.786;2022-11-20T06:38:49;9.10;99.90
16976;DHT22;8604;48.148;-1.786;2022-11-20T06:41:19;9.10;99.90
16976;DHT22;8604;48.148;-1.786;2022-11-20T06:43:50;9.20;99.90
16976;DHT22;8604;48.148;-1.786;2022-11-20T22:32:20;7.60;99.90
16976;DHT22;8604;48.148;-1.786;2022-11-20T22:34:49;7.60;99.90
16976;DHT22;8604;48.148;-1.786;2022-11-20T22:37:18;7.60;99.90
16976;DHT22;8604;48.148;-1.786;2022-11-20T22:39:47;7.60;99.90
16976;DHT22;8604;48.148;-1.786;2022-11-20T22:42:16;7.60;99.90
16976;DHT22;8604;48.148;-1.786;2022-11-20T22:44:46;7.60;99.90
16976;DHT22;8604;48.148;-1.786;2022-11-20T22:47:15;7.60;99.90
16976;DHT22;8604;48.148;-1.786;2022-11-20T22:49:45;7.50;99.90
16976;DHT22;8604;48.148;-1.786;2022-11-20T22:52:14;7.50;99.90
16976;DHT22;8604;48.148;-1.786;2022-11-20T22:54:42;7.50;99.90
16976;DHT22;8604;48.148;-1.786;2022-11-20T22:57:11;7.50;99.90
16976;DHT22;8604;48.148;-1.786;2022-11-20T22:59:40;7.50;99.90
16976;DHT22;8604;48.148;-1.786;2022-11-20T23:02:08;7.50;99.90
16976;DHT22;8604;48.148;-1.786;2022-11-20T23:04:37;7.50;99.90
16976;DHT22;8604;48.148;-1.786;2022-11-20T23:07:07;7.50;99.90
16976;DHT22;8604;48.148;-1.786;2022-11-20T23:09:36;7.50;99.90
16976;DHT22;8604;48.148;-1.786;2022-11-20T23:12:05;7.50;99.90
16976;DHT22;8604;48.148;-1.786;2022-11-20T23:14:34;7.50;99.90
16976;DHT22;8604;48.148;-1.786;2022-11-20T23:17:02;7.50;99.90
16976;DHT22;8604;48.148;-1.786;2022-11-20T23:19:31;7.50;99.90
16976;DHT22;8604;48.148;-1.786;2022-11-20T23:21:59;7.50;99.90
16976;DHT22;8604;48.148;-1.786;2022-11-20T23:24:29;7.50;99.90
16976;DHT22;8604;48.148;-1.786;2022-11-20T23:26:58;7.50;99.90
16976;DHT22;8604;48.148;-1.786;2022-11-20T23:29:26;7.50;99.90
16976;DHT22;8604;48.148;-1.786;2022-11-20T23:31:55;7.40;99.90
16976;DHT22;8604;48.148;-1.786;2022-11-20T23:34:24;7.50;99.90
16976;DHT22;8604;48.148;-1.786;2022-11-20T23:36:53;7.50;99.90
16976;DHT22;8604;48.148;-1.786;2022-11-20T23:39:21;7.40;99.90
16976;DHT22;8604;48.148;-1.786;2022-11-20T23:41:51;7.40;99.90
16976;DHT22;8604;48.148;-1.786;2022-11-20T23:44:20;7.40;99.90
16976;DHT22;8604;48.148;-1.786;2022-11-20T23:46:49;7.40;99.90
16976;DHT22;8604;48.148;-1.786;2022-11-20T23:49:18;7.40;99.90
16976;DHT22;8604;48.148;-1.786;2022-11-20T23:51:47;7.40;99.90
16976;DHT22;8604;48.148;-1.786;2022-11-20T23:54:15;7.30;99.90
16976;DHT22;8604;48.148;-1.786;2022-11-20T23:56:44;7.40;99.90
16976;DHT22;8604;48.148;-1.786;2022-11-20T23:59:14;7.40;99.90
